sensor_id;sensor_type;location;lat;lon;timestamp;pressure;altitude;pressure_sealevel;temperature;humidity
33185;BME280;19550;42.872;25.494;2024-03-17T00:01:38;96688.09;;;5.63;100.00
33185;BME280;19550;42.872;25.494;2024-03-17T00:04:06;96692.44;;;5.69;100.00
33185;BME280;19550;42.872;25.494;2024-03-17T00:06:34;96689.44;;;5.66;100.00
33185;BME280;19550;42.872;25.494;2024-03-17T00:09:00;96699.06;;;5.68;100.00
33185;BME280;19550;42.872;25.494;2024-03-17T00:11:31;96693.56;;;5.68;100.00
33185;BME280;19550;42.872;25.494;2024-03-17T00:13:58;96691.09;;;5.67;100.00
33185;BME280;19550;42.872;25.494;2024-03-17T00:16:24;96685.31;;;5.68;100.00
33185;BME280;19550;42.872;25.494;2024-03-17T00:18:51;96677.09;;;5.63;100.00
33185;BME280;19550;42.872;25.494;2024-03-17T00:21:16;96686.97;;;5.69;100.00
33185;BME280;19550;42.872;25.494;2024-03-17T00:23:47;96682.00;;;5.71;100.00
33185;BME280;19550;42.872;25.494;2024-03-17T00:26:13;96663.84;;;5.65;100.00
33185;BME280;19550;42.872;25.494;2024-03-17T00:28:40;96688.25;;;5.82;100.00
33185;BME280;19550;42.872;25.494;2024-03-17T00:31:06;96687.47;;;5.76;100.00
33185;BME280;19550;42.872;25.494;2024-03-17T00:33:35;96693.81;;;5.72;100.00
33185;BME280;19550;42.872;25.494;2024-03-17T00:36:01;96688.59;;;5.70;100.00
33185;BME280;19550;42.872;25.494;2024-03-17T00:38:28;96689.44;;;5.66;100.00
33185;BME280;19550;42.872;25.494;2024-03-17T00:40:56;96687.81;;;5.59;100.00
33185;BME280;19550;42.872;25.494;2024-03-17T00:43:22;96688.91;;;5.58;100.00
33185;BME280;19550;42.872;25.494;2024-03-17T00:45:51;96694.09;;;5.65;100.00
33185;BME280;19550;42.872;25.494;2024-03-17T00:48:18;96689.94;;;5.73;100.00
33185;BME280;19550;42.872;25.494;2024-03-17T00:50:44;96687.81;;;5.65;100.00
33185;BME280;19550;42.872;25.494;2024-03-17T00:53:11;96690.63;;;5.49;100.00
33185;BME280;19550;42.872;25.494;2024-03-17T00:55:37;96686.19;;;5.53;100.00
33185;BME280;19550;42.872;25.494;2024-03-17T00:58:05;96681.75;;;5.63;100.00
33185;BME280;19550;42.872;25.494;2024-03-17T01:00:31;96671.63;;;5.53;100.00
33185;BME280;19550;42.872;25.494;2024-03-17T01:02:59;96687.00;;;5.54;100.00
33185;BME280;19550;42.872;25.494;2024-03-17T01:05:25;96683.13;;;5.60;100.00
33185;BME280;19550;42.872;25.494;2024-03-17T01:07:51;96681.81;;;5.47;100.00
33185;BME280;19550;42.872;25.494;2024-03-17T01:10:18;96682.34;;;5.54;100.00
33185;BME280;19550;42.872;25.494;2024-03-17T01:12:45;96681.28;;;5.50;100.00
33185;BME280;19550;42.872;25.494;2024-03-17T01:15:13;96677.44;;;5.51;100.00
33185;BME280;19550;42.872;25.494;2024-03-17T01:17:39;96678.81;;;5.39;100.00
33185;BME280;19550;42.872;25.494;2024-03-17T01:20:07;96683.53;;;5.33;100.00
33185;BME280;19550;42.872;25.494;2024-03-17T01:22:34;96683.31;;;5.25;100.00
33185;BME280;19550;42.872;25.494;2024-03-17T01:25:00;96681.91;;;5.22;100.00
33185;BME280;19550;42.872;25.494;2024-03-17T01:27:27;96678.31;;;5.27;100.00
33185;BME280;19550;42.872;25.494;2024-03-17T01:29:53;96680.53;;;5.30;100.00
33185;BME280;19550;42.872;25.494;2024-03-17T01:32:21;96683.00;;;5.21;100.00
33185;BME280;19550;42.872;25.494;2024-03-17T01:34:47;96675.88;;;5.20;100.00
33185;BME280;19550;42.872;25.494;2024-03-17T01:37:13;96677.78;;;5.19;100.00
33185;BME280;19550;42.872;25.494;2024-03-17T01:39:39;96679.19;;;5.17;100.00
33185;BME280;19550;42.872;25.494;2024-03-17T01:42:06;96670.94;;;5.12;100.00
33185;BME280;19550;42.872;25.494;2024-03-17T01:44:33;96662.47;;;5.03;100.00
33185;BME280;19550;42.872;25.494;2024-03-17T01:46:59;96676.72;;;5.15;100.00
33185;BME280;19550;42.872;25.494;2024-03-17T01:49:28;96672.88;;;5.06;100.00
33185;BME280;19550;42.872;25.494;2024-03-17T01:51:55;96678.44;;;4.86;100.00
33185;BME280;19550;42.872;25.494;2024-03-17T01:54:22;96680.63;;;4.89;100.00
33185;BME280;19550;42.872;25.494;2024-03-17T01:56:49;96678.72;;;4.79;100.00
33185;BME280;19550;42.872;25.494;2024-03-17T01:59:16;96675.44;;;4.77;100.00
33185;BME280;19550;42.872;25.494;2024-03-17T02:01:41;96674.63;;;4.57;100.00
33185;BME280;19550;42.872;25.494;2024-03-17T02:04:08;96687.78;;;4.60;100.00
33185;BME280;19550;42.872;25.494;2024-03-17T02:06:35;96671.34;;;4.65;100.00
33185;BME280;19550;42.872;25.494;2024-03-17T02:09:02;96683.66;;;4.72;100.00
33185;BME280;19550;42.872;25.494;2024-03-17T02:11:29;96684.78;;;4.71;100.00
33185;BME280;19550;42.872;25.494;2024-03-17T02:13:57;96686.69;;;4.76;100.00
33185;BME280;19550;42.872;25.494;2024-03-17T02:16:23;96685.59;;;4.67;100.00
33185;BME280;19550;42.872;25.494;2024-03-17T02:18:54;96686.44;;;4.77;100.00
33185;BME280;19550;42.872;25.494;2024-03-17T02:21:20;96691.91;;;4.67;100.00
33185;BME280;19550;42.872;25.494;2024-03-17T02:23:49;96682.03;;;4.61;100.00
33185;BME280;19550;42.872;25.494;2024-03-17T02:26:15;96690.28;;;4.61;100.00
33185;BME280;19550;42.872;25.494;2024-03-17T02:28:43;96685.06;;;4.50;100.00
33185;BME280;19550;42.872;25.494;2024-03-17T02:31:11;96690.28;;;4.41;100.00
33185;BME280;19550;42.872;25.494;2024-03-17T02:33:39;96684.50;;;4.48;100.00
33185;BME280;19550;42.872;25.494;2024-03-17T02:36:05;96681.22;;;4.51;100.00
33185;BME280;19550;42.872;25.494;2024-03-17T02:38:33;96685.63;;;4.52;100.00
33185;BME280;19550;42.872;25.494;2024-03-17T02:41:19;96677.09;;;4.53;100.00
33185;BME280;19550;42.872;25.494;2024-03-17T02:43:47;96685.88;;;4.40;100.00
33185;BME280;19550;42.872;25.494;2024-03-17T02:46:15;96688.38;;;4.31;100.00
33185;BME280;19550;42.872;25.494;2024-03-17T02:48:47;96682.88;;;4.31;100.00
33185;BME280;19550;42.872;25.494;2024-03-17T02:51:15;96686.16;;;4.33;100.00
33185;BME280;19550;42.872;25.494;2024-03-17T02:53:42;96686.44;;;4.42;100.00
33185;BME280;19550;42.872;25.494;2024-03-17T02:56:10;96684.50;;;4.48;100.00
33185;BME280;19550;42.872;25.494;2024-03-17T02:58:39;96692.19;;;4.56;100.00
33185;BME280;19550;42.872;25.494;2024-03-17T03:01:07;96690.56;;;4.55;100.00
33185;BME280;19550;42.872;25.494;2024-03-17T03:03:36;96698.22;;;4.53;100.00
33185;BME280;19550;42.872;25.494;2024-03-17T03:06:04;96696.31;;;4.53;100.00
33185;BME280;19550;42.872;25.494;2024-03-17T03:08:34;96703.19;;;4.61;100.00
33185;BME280;19550;42.872;25.494;2024-03-17T03:11:03;96689.72;;;4.59;100.00
33185;BME280;19550;42.872;25.494;2024-03-17T03:13:32;96693.31;;;4.65;100.00
33185;BME280;19550;42.872;25.494;2024-03-17T03:16:00;96686.72;;;4.71;100.00
33185;BME280;19550;42.872;25.494;2024-03-17T03:18:26;96686.41;;;4.67;100.00
33185;BME280;19550;42.872;25.494;2024-03-17T03:20:53;96691.91;;;4.67;100.00
33185;BME280;19550;42.872;25.494;2024-03-17T03:23:20;96694.09;;;4.65;100.00
33185;BME280;19550;42.872;25.494;2024-03-17T03:25:47;96697.66;;;4.66;100.00
33185;BME280;19550;42.872;25.494;2024-03-17T03:28:20;96707.31;;;4.63;100.00
33185;BME280;19550;42.872;25.494;2024-03-17T03:30:47;96698.25;;;4.58;100.00
33185;BME280;19550;42.872;25.494;2024-03-17T03:33:15;96692.19;;;4.61;100.00
33185;BME280;19550;42.872;25.494;2024-03-17T03:35:43;96700.97;;;4.73;100.00
33185;BME280;19550;42.872;25.494;2024-03-17T03:38:11;96701.78;;;4.73;100.00
33185;BME280;19550;42.872;25.494;2024-03-17T03:40:39;96702.59;;;4.79;100.00
33185;BME280;19550;42.872;25.494;2024-03-17T03:43:05;96700.69;;;4.74;100.00
33185;BME280;19550;42.872;25.494;2024-03-17T03:45:33;96698.78;;;4.70;100.00
33185;BME280;19550;42.872;25.494;2024-03-17T03:48:00;96702.34;;;4.75;100.00
33185;BME280;19550;42.872;25.494;2024-03-17T03:50:29;96699.88;;;4.59;100.00
33185;BME280;19550;42.872;25.494;2024-03-17T03:52:56;96702.63;;;4.59;100.00
33185;BME280;19550;42.872;25.494;2024-03-17T03:55:23;96695.78;;;4.56;100.00
33185;BME280;19550;42.872;25.494;2024-03-17T03:57:50;96692.75;;;4.63;100.00
33185;BME280;19550;42.872;25.494;2024-03-17T04:00:18;96696.03;;;4.70;100.00
33185;BME280;19550;42.872;25.494;2024-03-17T04:02:48;96708.13;;;4.69;100.00
33185;BME280;19550;42.872;25.494;2024-03-17T04:05:15;96705.09;;;4.65;100.00
33185;BME280;19550;42.872;25.494;2024-03-17T04:07:43;96704.28;;;4.70;100.00
33185;BME280;19550;42.872;25.494;2024-03-17T04:10:11;96705.09;;;4.65;100.00
33185;BME280;19550;42.872;25.494;2024-03-17T04:12:38;96706.44;;;4.73;100.00
33185;BME280;19550;42.872;25.494;2024-03-17T04:15:06;96706.72;;;4.66;100.00
33185;BME280;19550;42.872;25.494;2024-03-17T04:17:35;96711.97;;;4.63;100.00
33185;BME280;19550;42.872;25.494;2024-03-17T04:20:03;96713.63;;;4.64;100.00
33185;BME280;19550;42.872;25.494;2024-03-17T04:22:30;96715.00;;;4.71;100.00
33185;BME280;19550;42.872;25.494;2024-03-17T04:24:58;96713.06;;;4.72;100.00
33185;BME280;19550;42.872;25.494;2024-03-17T04:27:25;96697.16;;;4.64;100.00
33185;BME280;19550;42.872;25.494;2024-03-17T04:29:54;96713.59;;;4.74;100.00
33185;BME280;19550;42.872;25.494;2024-03-17T04:32:21;96719.38;;;4.77;100.00
33185;BME280;19550;42.872;25.494;2024-03-17T04:34:48;96724.56;;;4.79;100.00
33185;BME280;19550;42.872;25.494;2024-03-17T04:37:15;96724.31;;;4.75;100.00
33185;BME280;19550;42.872;25.494;2024-03-17T04:39:43;96719.06;;;4.79;100.00
33185;BME280;19550;42.872;25.494;2024-03-17T04:42:12;96718.00;;;4.75;100.00
33185;BME280;19550;42.872;25.494;2024-03-17T04:44:40;96712.78;;;4.63;100.00
33185;BME280;19550;42.872;25.494;2024-03-17T04:47:07;96711.69;;;4.54;100.00
33185;BME280;19550;42.872;25.494;2024-03-17T04:49:35;96735.84;;;4.77;100.00
33185;BME280;19550;42.872;25.494;2024-03-17T04:52:02;96741.59;;;4.81;100.00
33185;BME280;19550;42.872;25.494;2024-03-17T04:54:30;96739.69;;;4.76;100.00
33185;BME280;19550;42.872;25.494;2024-03-17T04:56:57;96748.75;;;4.77;100.00
33185;BME280;19550;42.872;25.494;2024-03-17T04:59:26;96748.19;;;4.75;100.00
33185;BME280;19550;42.872;25.494;2024-03-17T05:01:53;96739.13;;;4.74;100.00
33185;BME280;19550;42.872;25.494;2024-03-17T05:04:20;96741.06;;;4.89;100.00
33185;BME280;19550;42.872;25.494;2024-03-17T05:06:48;96748.72;;;4.92;100.00
33185;BME280;19550;42.872;25.494;2024-03-17T05:09:15;96748.16;;;5.05;100.00
33185;BME280;19550;42.872;25.494;2024-03-17T05:11:42;96719.34;;;5.03;100.00
33185;BME280;19550;42.872;25.494;2024-03-17T05:14:09;96750.63;;;5.17;100.00
33185;BME280;19550;42.872;25.494;2024-03-17T05:16:37;96751.16;;;5.19;100.00
33185;BME280;19550;42.872;25.494;2024-03-17T05:19:04;96744.00;;;5.33;100.00
33185;BME280;19550;42.872;25.494;2024-03-17T05:21:31;96753.03;;;5.39;100.00
33185;BME280;19550;42.872;25.494;2024-03-17T05:24:02;96750.28;;;5.49;100.00
33185;BME280;19550;42.872;25.494;2024-03-17T05:26:29;96754.63;;;5.60;100.00
33185;BME280;19550;42.872;25.494;2024-03-17T05:28:57;96751.84;;;5.65;100.00
33185;BME280;19550;42.872;25.494;2024-03-17T05:31:23;96755.09;;;5.87;100.00
33185;BME280;19550;42.872;25.494;2024-03-17T05:33:52;96757.81;;;5.97;100.00
33185;BME280;19550;42.872;25.494;2024-03-17T05:36:18;96757.19;;;6.11;100.00
33185;BME280;19550;42.872;25.494;2024-03-17T05:38:46;96758.03;;;6.06;100.00
33185;BME280;19550;42.872;25.494;2024-03-17T05:41:13;96760.81;;;6.01;100.00
33185;BME280;19550;42.872;25.494;2024-03-17T05:43:40;96755.59;;;5.99;100.00
33185;BME280;19550;42.872;25.494;2024-03-17T05:46:09;96761.56;;;6.12;100.00
33185;BME280;19550;42.872;25.494;2024-03-17T05:48:38;96761.34;;;6.08;100.00
33185;BME280;19550;42.872;25.494;2024-03-17T05:51:07;96759.66;;;6.12;100.00
33185;BME280;19550;42.872;25.494;2024-03-17T05:53:36;96746.28;;;5.95;100.00
33185;BME280;19550;42.872;25.494;2024-03-17T05:56:06;96763.53;;;6.11;100.00
33185;BME280;19550;42.872;25.494;2024-03-17T05:58:34;96762.28;;;6.32;100.00
33185;BME280;19550;42.872;25.494;2024-03-17T06:01:02;96761.44;;;6.37;100.00
33185;BME280;19550;42.872;25.494;2024-03-17T06:03:29;96768.22;;;6.55;100.00
33185;BME280;19550;42.872;25.494;2024-03-17T06:05:58;96770.88;;;6.65;100.00
33185;BME280;19550;42.872;25.494;2024-03-17T06:08:30;96764.75;;;6.78;100.00
33185;BME280;19550;42.872;25.494;2024-03-17T06:10:56;96768.22;;;6.89;100.00
33185;BME280;19550;42.872;25.494;2024-03-17T06:13:25;96771.63;;;7.09;100.00
33185;BME280;19550;42.872;25.494;2024-03-17T06:15:53;96777.72;;;7.06;100.00
33185;BME280;19550;42.872;25.494;2024-03-17T06:18:25;96770.28;;;7.07;100.00
33185;BME280;19550;42.872;25.494;2024-03-17T06:20:52;96769.22;;;7.03;100.00
33185;BME280;19550;42.872;25.494;2024-03-17T06:23:19;96780.69;;;7.15;100.00
33185;BME280;19550;42.872;25.494;2024-03-17T06:25:48;96770.41;;;7.21;100.00
33185;BME280;19550;42.872;25.494;2024-03-17T06:28:16;96780.41;;;7.16;100.00
33185;BME280;19550;42.872;25.494;2024-03-17T06:30:44;96764.97;;;7.15;100.00
33185;BME280;19550;42.872;25.494;2024-03-17T06:33:12;96767.47;;;7.41;100.00
33185;BME280;19550;42.872;25.494;2024-03-17T06:35:39;96782.75;;;7.81;100.00
33185;BME280;19550;42.872;25.494;2024-03-17T06:38:06;96788.59;;;7.98;100.00
33185;BME280;19550;42.872;25.494;2024-03-17T06:40:35;96780.22;;;8.08;100.00
33185;BME280;19550;42.872;25.494;2024-03-17T06:43:04;96785.09;;;8.16;100.00
33185;BME280;19550;42.872;25.494;2024-03-17T06:45:31;96784.13;;;8.26;100.00
33185;BME280;19550;42.872;25.494;2024-03-17T06:47:58;96786.50;;;8.38;100.00
33185;BME280;19550;42.872;25.494;2024-03-17T06:50:25;96788.38;;;8.42;100.00
33185;BME280;19550;42.872;25.494;2024-03-17T06:52:52;96777.06;;;8.38;100.00
33185;BME280;19550;42.872;25.494;2024-03-17T06:55:19;96785.16;;;8.54;100.00
33185;BME280;19550;42.872;25.494;2024-03-17T06:57:49;96789.94;;;8.67;100.00
33185;BME280;19550;42.872;25.494;2024-03-17T07:00:18;96785.38;;;8.76;100.00
33185;BME280;19550;42.872;25.494;2024-03-17T07:02:50;96787.16;;;8.86;100.00
33185;BME280;19550;42.872;25.494;2024-03-17T07:05:17;96779.84;;;8.95;100.00
33185;BME280;19550;42.872;25.494;2024-03-17T07:07:44;96782.94;;;9.07;100.00
33185;BME280;19550;42.872;25.494;2024-03-17T07:10:12;96776.34;;;9.22;100.00
33185;BME280;19550;42.872;25.494;2024-03-17T07:12:39;96781.78;;;9.27;100.00
33185;BME280;19550;42.872;25.494;2024-03-17T07:15:06;96786.63;;;9.35;100.00
33185;BME280;19550;42.872;25.494;2024-03-17T07:17:35;96779.59;;;9.42;100.00
33185;BME280;19550;42.872;25.494;2024-03-17T07:20:02;96788.91;;;9.46;100.00
33185;BME280;19550;42.872;25.494;2024-03-17T07:22:33;96791.19;;;9.58;100.00
33185;BME280;19550;42.872;25.494;2024-03-17T07:25:00;96780.66;;;9.74;100.00
33185;BME280;19550;42.872;25.494;2024-03-17T07:27:27;96770.59;;;9.91;100.00
33185;BME280;19550;42.872;25.494;2024-03-17T07:29:54;96779.44;;;10.07;100.00
33185;BME280;19550;42.872;25.494;2024-03-17T07:32:21;96776.19;;;10.19;100.00
33185;BME280;19550;42.872;25.494;2024-03-17T07:34:50;96775.94;;;10.56;100.00
33185;BME280;19550;42.872;25.494;2024-03-17T07:37:17;96771.88;;;10.98;100.00
33185;BME280;19550;42.872;25.494;2024-03-17T07:39:42;96774.91;;;11.33;98.79
33185;BME280;19550;42.872;25.494;2024-03-17T07:42:09;96779.31;;;11.78;96.54
33185;BME280;19550;42.872;25.494;2024-03-17T07:44:38;96777.91;;;11.67;95.19
33185;BME280;19550;42.872;25.494;2024-03-17T07:47:05;96780.31;;;11.82;95.31
33185;BME280;19550;42.872;25.494;2024-03-17T07:49:32;96774.94;;;11.86;93.24
33185;BME280;19550;42.872;25.494;2024-03-17T07:52:01;96768.00;;;12.06;92.59
33185;BME280;19550;42.872;25.494;2024-03-17T07:54:27;96771.97;;;12.22;90.25
33185;BME280;19550;42.872;25.494;2024-03-17T07:56:54;96769.72;;;12.32;89.42
33185;BME280;19550;42.872;25.494;2024-03-17T07:59:21;96769.28;;;12.65;87.10
33185;BME280;19550;42.872;25.494;2024-03-17T08:01:48;96766.38;;;12.87;86.21
33185;BME280;19550;42.872;25.494;2024-03-17T08:04:15;96762.94;;;12.99;85.00
33185;BME280;19550;42.872;25.494;2024-03-17T08:06:42;96770.00;;;12.96;84.30
33185;BME280;19550;42.872;25.494;2024-03-17T08:09:11;96758.19;;;12.82;85.14
33185;BME280;19550;42.872;25.494;2024-03-17T08:11:38;96746.88;;;12.61;84.96
33185;BME280;19550;42.872;25.494;2024-03-17T08:14:09;96752.75;;;12.43;83.48
33185;BME280;19550;42.872;25.494;2024-03-17T08:16:36;96765.94;;;12.28;83.03
33185;BME280;19550;42.872;25.494;2024-03-17T08:19:02;96759.22;;;12.21;85.32
33185;BME280;19550;42.872;25.494;2024-03-17T08:21:29;96766.06;;;12.15;84.99
33185;BME280;19550;42.872;25.494;2024-03-17T08:23:56;96763.88;;;12.43;86.50
33185;BME280;19550;42.872;25.494;2024-03-17T08:26:24;96760.31;;;12.85;84.54
33185;BME280;19550;42.872;25.494;2024-03-17T08:28:51;96761.63;;;13.05;80.86
33185;BME280;19550;42.872;25.494;2024-03-17T08:31:18;96752.94;;;12.98;78.10
33185;BME280;19550;42.872;25.494;2024-03-17T08:33:45;96754.25;;;13.00;77.37
33185;BME280;19550;42.872;25.494;2024-03-17T08:36:16;96755.41;;;12.91;76.03
33185;BME280;19550;42.872;25.494;2024-03-17T08:38:44;96756.22;;;12.91;76.53
33185;BME280;19550;42.872;25.494;2024-03-17T08:41:11;96760.31;;;12.85;74.84
33185;BME280;19550;42.872;25.494;2024-03-17T08:43:40;96752.78;;;13.11;73.69
33185;BME280;19550;42.872;25.494;2024-03-17T08:46:08;96746.75;;;13.27;73.25
33185;BME280;19550;42.872;25.494;2024-03-17T08:48:36;96737.44;;;13.23;73.69
33185;BME280;19550;42.872;25.494;2024-03-17T08:51:05;96747.72;;;12.96;72.63
33185;BME280;19550;42.872;25.494;2024-03-17T08:53:33;96749.84;;;13.17;74.02
33185;BME280;19550;42.872;25.494;2024-03-17T08:56:03;96746.06;;;13.30;72.92
33185;BME280;19550;42.872;25.494;2024-03-17T08:58:31;96750.13;;;13.58;70.33
33185;BME280;19550;42.872;25.494;2024-03-17T09:01:03;96739.59;;;14.10;70.90
33185;BME280;19550;42.872;25.494;2024-03-17T09:03:30;96741.84;;;14.25;68.73
33185;BME280;19550;42.872;25.494;2024-03-17T09:05:57;96710.38;;;13.87;67.87
33185;BME280;19550;42.872;25.494;2024-03-17T09:08:24;96725.31;;;13.82;68.74
33185;BME280;19550;42.872;25.494;2024-03-17T09:10:53;96713.59;;;13.51;68.22
33185;BME280;19550;42.872;25.494;2024-03-17T09:13:22;96703.84;;;13.28;70.45
33185;BME280;19550;42.872;25.494;2024-03-17T09:15:52;96736.88;;;13.55;70.40
33185;BME280;19550;42.872;25.494;2024-03-17T09:18:21;96724.09;;;13.54;71.81
33185;BME280;19550;42.872;25.494;2024-03-17T09:20:56;96698.41;;;13.40;69.49
33185;BME280;19550;42.872;25.494;2024-03-17T09:23:23;96724.75;;;13.51;71.17
33185;BME280;19550;42.872;25.494;2024-03-17T09:25:55;96694.66;;;13.27;74.11
33185;BME280;19550;42.872;25.494;2024-03-17T09:28:22;96717.38;;;13.55;73.51
33185;BME280;19550;42.872;25.494;2024-03-17T09:30:49;96730.78;;;13.62;70.91
33185;BME280;19550;42.872;25.494;2024-03-17T09:33:18;96689.56;;;13.38;71.21
33185;BME280;19550;42.872;25.494;2024-03-17T09:35:54;96719.66;;;13.53;71.29
33185;BME280;19550;42.872;25.494;2024-03-17T09:38:21;96719.84;;;13.48;71.61
33185;BME280;19550;42.872;25.494;2024-03-17T09:40:49;96715.28;;;13.35;72.96
33185;BME280;19550;42.872;25.494;2024-03-17T09:43:19;96712.00;;;13.33;74.48
33185;BME280;19550;42.872;25.494;2024-03-17T09:45:46;96694.19;;;13.25;75.04
33185;BME280;19550;42.872;25.494;2024-03-17T09:48:14;96674.56;;;13.13;73.34
33185;BME280;19550;42.872;25.494;2024-03-17T09:50:48;96708.41;;;13.32;73.12
33185;BME280;19550;42.872;25.494;2024-03-17T09:53:24;96698.16;;;13.16;72.41
33185;BME280;19550;42.872;25.494;2024-03-17T09:55:51;96686.31;;;13.10;71.31
33185;BME280;19550;42.872;25.494;2024-03-17T09:58:19;96686.16;;;13.06;72.28
33185;BME280;19550;42.872;25.494;2024-03-17T10:00:46;96678.81;;;13.02;72.26
33185;BME280;19550;42.872;25.494;2024-03-17T10:03:39;96683.06;;;13.17;72.81
33185;BME280;19550;42.872;25.494;2024-03-17T10:06:07;96659.31;;;13.66;70.71
33185;BME280;19550;42.872;25.494;2024-03-17T10:08:41;96680.13;;;14.06;68.33
33185;BME280;19550;42.872;25.494;2024-03-17T10:11:09;96669.88;;;14.19;68.25
33185;BME280;19550;42.872;25.494;2024-03-17T10:13:36;96657.16;;;14.30;66.61
33185;BME280;19550;42.872;25.494;2024-03-17T10:16:03;96669.84;;;14.90;67.87
33185;BME280;19550;42.872;25.494;2024-03-17T10:18:30;96679.72;;;15.41;63.67
33185;BME280;19550;42.872;25.494;2024-03-17T10:20:57;96674.03;;;15.49;60.18
33185;BME280;19550;42.872;25.494;2024-03-17T10:23:26;96685.75;;;15.76;58.19
33185;BME280;19550;42.872;25.494;2024-03-17T10:26:13;96656.19;;;16.23;56.41
33185;BME280;19550;42.872;25.494;2024-03-17T10:28:44;96666.06;;;16.45;53.67
33185;BME280;19550;42.872;25.494;2024-03-17T10:31:10;96669.66;;;16.70;55.57
33185;BME280;19550;42.872;25.494;2024-03-17T10:33:38;96671.69;;;16.21;55.34
33185;BME280;19550;42.872;25.494;2024-03-17T10:36:17;96673.38;;;15.53;56.74
33185;BME280;19550;42.872;25.494;2024-03-17T10:38:51;96674.81;;;15.05;57.46
33185;BME280;19550;42.872;25.494;2024-03-17T10:41:23;96658.91;;;14.64;58.35
33185;BME280;19550;42.872;25.494;2024-03-17T10:43:53;96651.84;;;14.46;59.21
33185;BME280;19550;42.872;25.494;2024-03-17T10:46:21;96672.75;;;14.60;60.08
33185;BME280;19550;42.872;25.494;2024-03-17T10:48:49;96674.38;;;14.82;58.83
33185;BME280;19550;42.872;25.494;2024-03-17T10:51:17;96643.22;;;15.13;52.38
33185;BME280;19550;42.872;25.494;2024-03-17T10:53:46;96657.34;;;15.74;49.87
33185;BME280;19550;42.872;25.494;2024-03-17T10:56:17;96651.91;;;16.02;50.81
33185;BME280;19550;42.872;25.494;2024-03-17T10:58:49;96647.31;;;15.73;50.75
33185;BME280;19550;42.872;25.494;2024-03-17T11:01:22;96647.00;;;15.86;51.56
33185;BME280;19550;42.872;25.494;2024-03-17T11:03:51;96633.34;;;16.09;47.31
33185;BME280;19550;42.872;25.494;2024-03-17T11:06:19;96640.84;;;16.69;45.23
33185;BME280;19550;42.872;25.494;2024-03-17T11:08:47;96625.03;;;17.17;43.76
33185;BME280;19550;42.872;25.494;2024-03-17T11:11:35;96628.31;;;17.78;41.16
33185;BME280;19550;42.872;25.494;2024-03-17T11:14:17;96612.03;;;17.84;39.13
33185;BME280;19550;42.872;25.494;2024-03-17T11:16:45;96597.63;;;18.36;40.31
33185;BME280;19550;42.872;25.494;2024-03-17T11:19:15;96590.31;;;18.32;36.56
33185;BME280;19550;42.872;25.494;2024-03-17T11:21:42;96594.66;;;17.94;39.59
33185;BME280;19550;42.872;25.494;2024-03-17T11:24:20;96614.59;;;16.74;46.83
33185;BME280;19550;42.872;25.494;2024-03-17T11:26:48;96624.59;;;16.11;48.77
33185;BME280;19550;42.872;25.494;2024-03-17T11:29:29;96597.59;;;15.78;51.14
33185;BME280;19550;42.872;25.494;2024-03-17T11:31:58;96589.09;;;15.75;51.76
33185;BME280;19550;42.872;25.494;2024-03-17T11:34:29;96630.78;;;16.04;52.41
33185;BME280;19550;42.872;25.494;2024-03-17T11:36:56;96621.00;;;15.86;52.42
33185;BME280;19550;42.872;25.494;2024-03-17T11:42:30;96616.69;;;15.64;53.52
33185;BME280;19550;42.872;25.494;2024-03-17T11:44:59;96614.69;;;15.53;52.11
33185;BME280;19550;42.872;25.494;2024-03-17T11:47:37;96598.25;;;15.39;51.44
33185;BME280;19550;42.872;25.494;2024-03-17T11:50:05;96604.19;;;15.49;51.19
33185;BME280;19550;42.872;25.494;2024-03-17T11:52:32;96611.81;;;15.73;49.77
33185;BME280;19550;42.872;25.494;2024-03-17T11:54:58;96593.41;;;15.72;51.02
33185;BME280;19550;42.872;25.494;2024-03-17T11:57:26;96604.47;;;15.81;48.84
33185;BME280;19550;42.872;25.494;2024-03-17T11:59:54;96585.25;;;15.67;48.53
33185;BME280;19550;42.872;25.494;2024-03-17T12:02:23;96581.06;;;15.73;50.96
33185;BME280;19550;42.872;25.494;2024-03-17T12:04:51;96575.69;;;15.93;50.35
33185;BME280;19550;42.872;25.494;2024-03-17T12:07:19;96567.41;;;15.96;48.98
33185;BME280;19550;42.872;25.494;2024-03-17T12:09:49;96586.06;;;16.68;49.37
33185;BME280;19550;42.872;25.494;2024-03-17T12:12:20;96588.41;;;16.94;47.69
33185;BME280;19550;42.872;25.494;2024-03-17T12:14:46;96597.94;;;16.65;47.20
33185;BME280;19550;42.872;25.494;2024-03-17T12:17:19;96564.81;;;16.27;47.37
33185;BME280;19550;42.872;25.494;2024-03-17T12:19:47;96570.50;;;16.71;47.39
33185;BME280;19550;42.872;25.494;2024-03-17T12:22:16;96588.91;;;17.28;45.75
33185;BME280;19550;42.872;25.494;2024-03-17T12:24:44;96588.91;;;17.28;43.96
33185;BME280;19550;42.872;25.494;2024-03-17T12:27:17;96562.44;;;17.41;43.96
33185;BME280;19550;42.872;25.494;2024-03-17T12:29:43;96588.94;;;17.59;46.08
33185;BME280;19550;42.872;25.494;2024-03-17T12:32:13;96592.69;;;17.35;46.70
33185;BME280;19550;42.872;25.494;2024-03-17T12:34:40;96595.25;;;16.97;49.39
33185;BME280;19550;42.872;25.494;2024-03-17T12:37:15;96598.25;;;16.76;49.78
33185;BME280;19550;42.872;25.494;2024-03-17T12:39:41;96588.75;;;16.53;50.80
33185;BME280;19550;42.872;25.494;2024-03-17T12:42:09;96571.41;;;16.47;51.73
33185;BME280;19550;42.872;25.494;2024-03-17T12:44:36;96602.41;;;16.54;53.17
33185;BME280;19550;42.872;25.494;2024-03-17T12:47:08;96584.56;;;16.47;54.77
33185;BME280;19550;42.872;25.494;2024-03-17T12:49:34;96607.75;;;16.59;54.41
33185;BME280;19550;42.872;25.494;2024-03-17T12:52:02;96575.41;;;16.34;55.30
33185;BME280;19550;42.872;25.494;2024-03-17T12:54:29;96599.06;;;16.24;55.10
33185;BME280;19550;42.872;25.494;2024-03-17T12:57:06;96596.97;;;16.34;55.30
33185;BME280;19550;42.872;25.494;2024-03-17T12:59:49;96581.22;;;16.41;54.85